Time;durP1;ratioP1;P1;durP2;ratioP2;P2;SDS_P1;SDS_P2;PMS_P1;PMS_P2;Temp;Humidity;BMP_temperature;BMP_pressure;BME280_temperature;BME280_humidity;BME280_pressure;Samples;Min_cycle;Max_cycle;Signal;HPM_P1;HPM_P2
2022/01/10 00:01:58;;;;;;;;;44.75;36.50;;;;;8.30;66.82;100558.91;5057955;28;45414;-81
2022/01/10 00:04:23;;;;;;;;;52.50;43.00;;;;;8.37;66.52;100574.50;5056956;28;45429;-80
2022/01/10 00:06:49;;;;;;;;;44.75;36.75;;;;;8.33;66.57;100567.75;5073487;28;45438;-80
2022/01/10 00:09:14;;;;;;;;;50.00;37.50;;;;;8.28;66.54;100547.34;5059624;28;45382;-78
2022/01/10 00:11:40;;;;;;;;;54.50;45.50;;;;;8.45;66.24;100574.41;5040875;28;45891;-79
2022/01/10 00:14:05;;;;;;;;;41.25;36.00;;;;;8.41;66.18;100567.59;5052699;28;46010;-81
2022/01/10 00:16:31;;;;;;;;;43.75;36.25;;;;;8.48;66.27;100583.03;5058309;28;45374;-80
2022/01/10 00:18:56;;;;;;;;;54.50;38.50;;;;;8.50;65.67;100585.56;5057972;28;45410;-81
2022/01/10 00:21:22;;;;;;;;;51.75;42.25;;;;;8.58;65.76;100599.09;5038576;28;46437;-79
2022/01/10 00:23:48;;;;;;;;;54.75;44.00;;;;;8.56;65.74;100595.72;5038384;28;45870;-81
2022/01/10 00:26:13;;;;;;;;;53.75;43.50;;;;;8.63;65.93;100602.06;5055726;28;45784;-83
2022/01/10 00:28:39;;;;;;;;;45.50;38.25;;;;;8.62;65.55;100597.66;5057001;28;45412;-78
2022/01/10 00:31:08;;;;;;;;;48.00;40.00;;;;;8.61;65.58;100598.69;5057339;28;45750;-82
2022/01/10 00:33:33;;;;;;;;;44.75;36.50;;;;;8.63;65.74;100612.16;5041222;28;47069;-81
2022/01/10 00:35:59;;;;;;;;;41.00;34.25;;;;;8.44;65.38;100572.69;5040834;28;45508;-81
2022/01/10 00:38:24;;;;;;;;;46.75;38.00;;;;;8.66;65.63;100607.13;5040466;28;45305;-81
2022/01/10 00:40:51;;;;;;;;;58.75;46.50;;;;;8.61;65.53;100604.16;5035714;28;45881;-77
2022/01/10 00:43:19;;;;;;;;;60.75;48.75;;;;;8.65;65.14;100610.91;5040469;28;45762;-82
2022/01/10 00:45:45;;;;;;;;;65.75;50.50;;;;;8.66;64.88;100619.97;5040847;28;45548;-81
2022/01/10 00:48:11;;;;;;;;;60.00;48.25;;;;;8.63;65.05;100621.19;5040102;28;45414;-81
2022/01/10 00:50:37;;;;;;;;;64.25;50.00;;;;;8.43;65.06;100595.59;5040409;28;45841;-78
2022/01/10 00:53:03;;;;;;;;;65.75;51.00;;;;;8.49;64.68;100622.16;5045304;28;45276;-79
2022/01/10 00:55:31;;;;;;;;;61.25;49.00;;;;;8.40;65.08;100602.28;5044509;28;45373;-81
2022/01/10 00:57:56;;;;;;;;;56.75;46.50;;;;;8.45;65.63;100623.59;5040342;28;45733;-80
2022/01/10 01:00:22;;;;;;;;;60.00;49.00;;;;;8.28;65.73;100598.41;5036135;28;46267;-78
2022/01/10 01:02:49;;;;;;;;;57.50;47.00;;;;;8.37;66.34;100624.53;5036806;28;45486;-78
2022/01/10 01:05:17;;;;;;;;;61.25;49.00;;;;;8.35;66.29;100625.78;5036482;28;45354;-78
2022/01/10 01:07:46;;;;;;;;;60.25;46.25;;;;;8.30;66.63;100632.66;5037552;28;45407;-82
2022/01/10 01:24:01;;;;;;;;;54.00;44.50;;;;;8.19;66.38;100663.28;5049566;28;45328;-83
2022/01/10 01:26:36;;;;;;;;;60.75;46.00;;;;;8.26;66.37;100677.84;5029350;28;45413;-78
2022/01/10 01:29:04;;;;;;;;;55.75;45.50;;;;;8.23;65.91;100672.78;5028471;28;45378;-80
2022/01/10 01:31:29;;;;;;;;;58.25;44.50;;;;;8.21;66.25;100677.56;5026436;28;46010;-82
2022/01/10 01:33:55;;;;;;;;;54.75;43.50;;;;;8.22;65.79;100690.19;5045770;28;45416;-80
2022/01/10 01:36:23;;;;;;;;;58.00;46.75;;;;;8.22;66.07;100690.19;5017426;28;45426;-77
2022/01/10 01:38:49;;;;;;;;;58.25;45.50;;;;;8.11;66.50;100690.69;5034342;28;45814;-79
2022/01/10 01:43:54;;;;;;;;;61.75;50.50;;;;;8.12;66.54;100706.88;5034367;28;45628;-78
2022/01/10 01:46:20;;;;;;;;;63.00;48.50;;;;;8.04;66.71;100714.34;5035768;28;45426;-81
2022/01/10 01:48:47;;;;;;;;;60.00;48.00;;;;;7.95;67.38;100711.75;5038623;28;45316;-81
2022/01/10 01:51:13;;;;;;;;;57.75;46.50;;;;;7.93;66.88;100718.44;5033512;28;45810;-77
2022/01/10 01:53:39;;;;;;;;;53.25;42.50;;;;;7.87;66.64;100724.66;5033790;28;45667;-80
2022/01/10 01:56:06;;;;;;;;;47.75;40.00;;;;;7.79;67.40;100731.09;5034937;28;45810;-80
2022/01/10 01:58:32;;;;;;;;;56.75;44.50;;;;;7.71;67.59;100729.31;5036151;28;45469;-80
2022/01/10 02:00:58;;;;;;;;;54.00;44.00;;;;;7.62;67.19;100724.16;5034953;28;45375;-81
2022/01/10 02:03:24;;;;;;;;;55.00;44.25;;;;;7.64;67.61;100733.00;5033707;28;46960;-77
2022/01/10 02:05:50;;;;;;;;;57.50;43.75;;;;;7.56;67.56;100736.66;5034195;28;45634;-79
2022/01/10 02:08:16;;;;;;;;;55.75;43.00;;;;;7.47;68.03;100732.34;5019550;28;45764;-80
2022/01/10 02:10:41;;;;;;;;;48.50;41.00;;;;;7.34;67.65;100728.41;5034947;28;45732;-81
2022/01/10 02:13:06;;;;;;;;;53.75;43.25;;;;;7.33;68.12;100748.53;5040683;28;45739;-79
2022/01/10 02:15:50;;;;;;;;;51.75;40.25;;;;;7.29;68.06;100749.97;5052369;28;45395;-77
2022/01/10 02:18:18;;;;;;;;;53.00;42.75;;;;;7.28;68.47;100756.44;5052176;28;45744;-77
2022/01/10 02:20:45;;;;;;;;;53.00;42.50;;;;;7.22;68.19;100746.28;5051154;28;45711;-80
2022/01/10 02:23:11;;;;;;;;;51.00;41.25;;;;;7.18;68.13;100748.50;5023037;28;45525;-77
2022/01/10 02:25:37;;;;;;;;;50.75;41.00;;;;;7.17;68.92;100754.16;5050081;28;45897;-77
2022/01/10 02:28:03;;;;;;;;;52.00;41.75;;;;;7.14;69.42;100751.81;5052184;28;45732;-79
2022/01/10 02:30:31;;;;;;;;;55.50;44.00;;;;;7.11;69.23;100750.31;5054215;28;45619;-81
2022/01/10 02:33:00;;;;;;;;;54.25;45.00;;;;;7.07;68.61;100749.00;5056966;28;46795;-81
2022/01/10 02:35:33;;;;;;;;;56.25;44.50;;;;;7.04;69.16;100747.47;5055994;28;45867;-82
2022/01/10 02:37:59;;;;;;;;;53.75;44.50;;;;;7.00;69.11;100756.22;5037434;28;45477;-78
2022/01/10 02:40:28;;;;;;;;;55.50;41.25;;;;;6.95;69.15;100756.78;5049891;28;45419;-78
2022/01/10 02:42:53;;;;;;;;;56.00;45.00;;;;;6.87;69.53;100762.28;5055158;28;45726;-77
2022/01/10 02:45:20;;;;;;;;;58.25;45.50;;;;;6.89;69.99;100774.69;5056314;28;45347;-78
2022/01/10 02:47:47;;;;;;;;;58.00;45.75;;;;;6.80;69.21;100751.28;5032694;28;45381;-79
2022/01/10 02:50:13;;;;;;;;;59.00;46.50;;;;;6.83;69.81;100763.69;5013069;28;46438;-79
2022/01/10 02:52:39;;;;;;;;;54.75;43.75;;;;;6.79;69.71;100789.63;5031351;28;45498;-77
2022/01/10 02:55:07;;;;;;;;;58.50;44.75;;;;;6.77;70.23;100798.00;5031938;28;45430;-78
2022/01/10 02:57:33;;;;;;;;;55.00;45.00;;;;;6.74;69.59;100792.03;5013801;28;45482;-80
2022/01/10 03:00:05;;;;;;;;;59.00;46.00;;;;;6.59;69.29;100770.22;5030543;28;45748;-77
2022/01/10 03:02:33;;;;;;;;;55.75;42.00;;;;;6.63;69.80;100782.41;5034994;28;48041;-82
2022/01/10 03:04:59;;;;;;;;;53.50;43.50;;;;;6.69;70.21;100795.31;5034869;28;45819;-78
2022/01/10 03:07:25;;;;;;;;;58.25;48.50;;;;;6.66;70.49;100801.13;5035556;28;45474;-77
2022/01/10 03:09:51;;;;;;;;;51.00;44.00;;;;;6.67;70.03;100795.50;5035649;28;45374;-81
2022/01/10 03:12:17;;;;;;;;;58.00;45.50;;;;;6.61;70.26;100798.13;5035745;28;47253;-80
2022/01/10 03:14:44;;;;;;;;;57.50;45.25;;;;;6.63;70.47;100804.22;5053513;28;45968;-82
2022/01/10 03:17:10;;;;;;;;;57.00;45.50;;;;;6.66;70.01;100812.03;5053315;28;45758;-78
2022/01/10 03:19:40;;;;;;;;;38.25;34.00;;;;;6.58;70.06;100806.66;5055067;28;46389;-79
2022/01/10 03:22:06;;;;;;;;;58.25;45.25;;;;;6.62;70.06;100819.72;5054672;28;45765;-79
2022/01/10 03:24:32;;;;;;;;;54.75;43.25;;;;;6.41;70.19;100792.28;5053955;28;45811;-82
2022/01/10 03:26:58;;;;;;;;;54.00;44.00;;;;;6.42;69.95;100800.28;5053223;28;45636;-82
2022/01/10 03:29:24;;;;;;;;;59.50;48.50;;;;;6.51;70.53;100826.44;5054789;28;46017;-80
2022/01/10 03:31:53;;;;;;;;;54.75;44.50;;;;;6.46;70.16;100839.75;5037532;28;47583;-81
2022/01/10 03:34:19;;;;;;;;;62.25;48.25;;;;;6.42;69.86;100843.00;5056172;28;45671;-81
2022/01/10 03:36:45;;;;;;;;;58.50;45.25;;;;;6.38;69.81;100847.09;5050071;28;45370;-81
2022/01/10 03:39:12;;;;;;;;;58.25;45.75;;;;;6.29;70.27;100832.72;5046608;28;45922;-82
2022/01/10 03:41:38;;;;;;;;;56.50;45.75;;;;;6.29;69.94;100849.06;5048474;28;45520;-80
2022/01/10 03:44:05;;;;;;;;;54.50;42.25;;;;;6.25;70.34;100845.81;5034932;28;45510;-82
2022/01/10 03:46:32;;;;;;;;;47.75;41.00;;;;;6.22;70.23;100842.63;5034666;28;45839;-80
2022/01/10 03:48:58;;;;;;;;;54.25;45.00;;;;;6.21;70.32;100843.63;5034026;28;45548;-76
2022/01/10 03:51:24;;;;;;;;;57.00;48.25;;;;;6.19;69.78;100849.25;5033071;28;46364;-78
2022/01/10 03:53:49;;;;;;;;;53.25;43.75;;;;;6.20;70.13;100853.69;5033501;28;45798;-77
2022/01/10 03:56:15;;;;;;;;;55.00;42.00;;;;;6.22;70.54;100857.06;5034301;28;45987;-76
2022/01/10 03:58:40;;;;;;;;;53.25;43.00;;;;;6.16;70.81;100850.47;5034349;28;45371;-78
2022/01/10 04:01:08;;;;;;;;;57.25;45.75;;;;;6.17;70.44;100851.31;5034139;28;46129;-78
2022/01/10 04:03:35;;;;;;;;;55.50;44.00;;;;;6.17;70.48;100862.22;5033739;28;45458;-78
2022/01/10 04:06:00;;;;;;;;;60.00;47.00;;;;;6.22;70.63;100873.41;5032601;28;45772;-79
2022/01/10 04:08:26;;;;;;;;;60.75;46.75;;;;;6.21;70.37;100882.59;5034104;28;45802;-81
2022/01/10 04:10:54;;;;;;;;;55.50;45.50;;;;;6.15;70.07;100886.91;5042151;28;45837;-82
2022/01/10 04:13:20;;;;;;;;;57.75;47.25;;;;;6.11;70.44;100887.44;5043756;28;45409;-79
2022/01/10 04:15:46;;;;;;;;;54.75;45.00;;;;;6.06;70.46;100876.22;5053711;28;45449;-81
2022/01/10 04:18:11;;;;;;;;;56.75;45.75;;;;;6.07;69.91;100878.75;5048012;28;45568;-78
2022/01/10 04:20:37;;;;;;;;;63.25;49.75;;;;;6.04;70.20;100883.72;5042001;28;46648;-78
2022/01/10 04:23:03;;;;;;;;;53.25;42.00;;;;;6.02;69.89;100889.34;5035712;28;45371;-78
2022/01/10 04:25:28;;;;;;;;;51.50;42.75;;;;;6.00;70.50;100899.53;5035118;28;45783;-82
2022/01/10 04:27:54;;;;;;;;;54.25;44.75;;;;;6.00;70.41;100899.53;5039697;28;45444;-78
2022/01/10 04:30:19;;;;;;;;;54.25;44.75;;;;;5.99;70.73;100900.56;5036510;28;45536;-81
2022/01/10 04:32:45;;;;;;;;;61.00;46.75;;;;;5.86;70.08;100892.06;5059109;28;45453;-78
2022/01/10 04:35:12;;;;;;;;;59.50;47.00;;;;;5.91;70.35;100900.56;5057069;28;45472;-82
2022/01/10 04:37:38;;;;;;;;;57.25;46.00;;;;;5.89;70.32;100903.44;5064611;28;45402;-79
2022/01/10 04:40:07;;;;;;;;;57.50;46.75;;;;;5.84;70.55;100901.25;5065687;28;45375;-80
2022/01/10 04:42:33;;;;;;;;;55.75;45.25;;;;;5.89;70.92;100911.63;5055234;28;45340;-81
2022/01/10 04:44:58;;;;;;;;;57.00;44.00;;;;;5.85;70.56;100923.88;5053186;28;45719;-78
2022/01/10 04:47:24;;;;;;;;;55.50;45.00;;;;;5.85;71.19;100929.31;5036586;28;45743;-78
2022/01/10 04:52:17;;;;;;;;;55.00;45.00;;;;;5.78;71.54;100939.22;5054215;28;45523;-80
2022/01/10 04:54:43;;;;;;;;;58.50;47.00;;;;;5.78;71.58;100955.53;5053177;28;46447;-79
2022/01/10 04:57:09;;;;;;;;;60.00;48.00;;;;;5.66;70.73;100942.28;5053126;28;45427;-79
2022/01/10 04:59:34;;;;;;;;;57.00;44.25;;;;;5.68;71.22;100958.44;5052635;28;45382;-79
2022/01/10 05:01:59;;;;;;;;;60.50;48.25;;;;;5.64;71.00;100957.94;5052827;28;45741;-80
2022/01/10 05:04:25;;;;;;;;;59.50;49.00;;;;;5.60;71.70;100959.28;5052912;28;45722;-78
2022/01/10 05:06:50;;;;;;;;;59.00;47.25;;;;;5.53;71.54;100949.28;5052690;28;45745;-81
2022/01/10 05:09:16;;;;;;;;;62.50;48.75;;;;;5.55;71.61;100960.81;5052633;28;46405;-79
2022/01/10 05:11:41;;;;;;;;;62.00;50.50;;;;;5.54;71.60;100970.88;5051154;28;45602;-77
2022/01/10 05:14:07;;;;;;;;;58.25;46.25;;;;;5.50;71.66;100979.53;5018012;28;45266;-81
2022/01/10 05:16:32;;;;;;;;;58.50;47.25;;;;;5.48;71.61;100980.53;5031054;28;45957;-81
2022/01/10 05:19:00;;;;;;;;;58.25;49.00;;;;;5.43;72.05;100974.78;5030517;28;47029;-81
2022/01/10 05:21:28;;;;;;;;;62.00;49.75;;;;;5.41;71.36;100979.53;5030272;28;45844;-79
2022/01/10 05:23:53;;;;;;;;;65.25;50.50;;;;;5.39;71.25;100980.69;5032229;28;45477;-80
2022/01/10 05:26:19;;;;;;;;;60.75;48.75;;;;;5.37;71.52;100991.75;5046900;28;46446;-81
2022/01/10 05:28:44;;;;;;;;;60.25;49.75;;;;;5.19;71.23;100972.88;5052855;28;46204;-80
2022/01/10 05:31:10;;;;;;;;;57.75;48.25;;;;;5.35;71.55;100992.94;5052229;28;45804;-80
2022/01/10 05:33:35;;;;;;;;;59.50;48.25;;;;;5.25;71.84;100991.22;5051281;28;45379;-79
2022/01/10 05:36:00;;;;;;;;;69.00;53.00;;;;;5.27;71.02;101005.50;5052311;28;45572;-79
2022/01/10 05:38:26;;;;;;;;;65.75;51.00;;;;;5.23;71.37;101008.75;5034829;28;46569;-82
2022/01/10 05:40:51;;;;;;;;;63.00;48.75;;;;;5.23;71.88;101014.19;5019852;28;45783;-80
2022/01/10 05:43:17;;;;;;;;;63.50;47.00;;;;;5.16;71.75;101010.41;5033733;28;45697;-80
2022/01/10 05:45:44;;;;;;;;;60.75;48.50;;;;;5.16;71.61;101022.13;5050310;28;45829;-78
2022/01/10 05:48:13;;;;;;;;;59.75;50.00;;;;;5.15;71.87;101025.91;5052319;28;45776;-81
2022/01/10 05:50:42;;;;;;;;;58.75;46.75;;;;;5.12;71.31;101024.34;5049188;28;45367;-79
2022/01/10 05:53:10;;;;;;;;;65.00;50.00;;;;;5.00;71.37;101022.97;5054267;28;45750;-79
2022/01/10 05:55:37;;;;;;;;;62.75;51.00;;;;;5.02;71.58;101029.06;5046882;28;46240;-78
2022/01/10 05:58:03;;;;;;;;;60.00;49.00;;;;;4.94;71.21;101023.63;5043100;28;47174;-81
2022/01/10 06:00:29;;;;;;;;;59.25;49.25;;;;;4.98;71.39;101052.16;5062412;28;45346;-81
2022/01/10 06:02:54;;;;;;;;;62.75;50.25;;;;;4.88;71.52;101051.44;5059155;28;45437;-83
2022/01/10 06:05:20;;;;;;;;;65.50;51.25;;;;;4.88;72.32;101063.19;5055524;28;45579;-72
2022/01/10 06:07:46;;;;;;;;;66.25;51.00;;;;;4.82;72.19;101062.97;5055371;28;45527;-72
2022/01/10 06:10:12;;;;;;;;;64.00;51.50;;;;;4.77;72.44;101067.06;5056128;28;45710;-72
2022/01/10 06:12:37;;;;;;;;;59.25;46.00;;;;;4.75;72.53;101070.94;5054760;28;44823;-71
2022/01/10 06:15:03;;;;;;;;;57.00;47.25;;;;;4.72;72.51;101080.25;5059122;28;45364;-79
2022/01/10 06:17:29;;;;;;;;;65.00;48.75;;;;;4.69;71.02;101085.19;5058071;28;45440;-71
2022/01/10 06:19:54;;;;;;;;;61.75;48.00;;;;;4.63;70.99;101100.25;5062122;28;45447;-76
2022/01/10 06:22:19;;;;;;;;;60.50;46.75;;;;;4.60;71.29;101106.00;5066005;28;45275;-75
2022/01/10 06:24:45;;;;;;;;;62.75;47.50;;;;;4.55;72.48;101102.91;5038312;28;45761;-73
2022/01/10 06:27:10;;;;;;;;;68.25;52.75;;;;;4.49;72.04;101111.69;5059287;28;45416;-72
2022/01/10 06:29:37;;;;;;;;;64.50;48.75;;;;;4.45;72.51;101115.75;5059786;28;45323;-72
2022/01/10 06:32:03;;;;;;;;;72.25;52.75;;;;;4.38;72.73;101116.38;5040766;28;45738;-72
2022/01/10 06:34:35;;;;;;;;;62.50;49.50;;;;;4.38;71.91;101129.13;5061070;28;45525;-77
2022/01/10 06:37:01;;;;;;;;;65.00;51.50;;;;;4.33;72.83;101132.31;5068200;28;45443;-79
2022/01/10 06:39:27;;;;;;;;;63.75;47.25;;;;;4.29;73.05;101128.19;5075822;28;46002;-78
2022/01/10 06:41:52;;;;;;;;;60.75;48.00;;;;;4.28;73.82;101140.09;5065937;28;45706;-71
2022/01/10 06:44:18;;;;;;;;;63.00;48.50;;;;;4.26;73.29;101143.97;5062362;28;45655;-74
2022/01/10 06:46:43;;;;;;;;;57.75;46.00;;;;;4.19;73.59;101149.16;5059746;28;46443;-72
2022/01/10 06:49:09;;;;;;;;;65.25;50.00;;;;;4.11;72.13;101151.81;5062758;28;45340;-80
2022/01/10 06:51:34;;;;;;;;;61.00;48.25;;;;;4.11;73.48;101168.94;5072680;28;44994;-77
2022/01/10 06:54:00;;;;;;;;;60.00;46.25;;;;;4.11;73.06;101176.25;5073069;28;45450;-73
2022/01/10 06:56:25;;;;;;;;;61.50;44.50;;;;;4.10;73.97;101188.09;5058006;28;46425;-72
2022/01/10 06:58:51;;;;;;;;;58.50;43.00;;;;;4.08;73.42;101190.97;5056893;28;45375;-73
2022/01/10 07:01:18;;;;;;;;;59.00;46.00;;;;;4.04;73.50;101192.28;5061307;28;45417;-73
2022/01/10 07:03:44;;;;;;;;;61.50;45.50;;;;;4.07;73.47;101195.56;5057596;28;45807;-79
2022/01/10 07:06:10;;;;;;;;;55.25;44.50;;;;;4.10;73.06;101209.81;5069798;28;45820;-74
2022/01/10 07:08:35;;;;;;;;;57.50;44.75;;;;;4.11;73.54;101214.25;5060956;28;45832;-74
2022/01/10 07:11:01;;;;;;;;;56.50;43.75;;;;;4.09;73.53;101221.66;5045699;28;45894;-75
2022/01/10 07:13:26;;;;;;;;;58.00;44.50;;;;;4.04;72.35;101222.13;5066075;28;45493;-78
2022/01/10 07:15:52;;;;;;;;;53.25;43.50;;;;;4.06;72.36;101237.25;5054410;28;45641;-79
2022/01/10 07:18:18;;;;;;;;;55.25;43.00;;;;;4.01;72.35;101253.16;5051215;28;45671;-74
2022/01/10 07:20:43;;;;;;;;;46.00;40.50;;;;;3.99;72.07;101257.88;5063691;28;44840;-72
2022/01/10 07:23:09;;;;;;;;;57.25;42.75;;;;;3.97;73.32;101268.03;5060958;28;45754;-78
2022/01/10 07:25:35;;;;;;;;;51.75;41.75;;;;;3.98;73.74;101271.59;5072220;28;45250;-77
2022/01/10 07:28:01;;;;;;;;;56.00;42.50;;;;;3.95;73.73;101280.91;5052861;28;45394;-81
2022/01/10 07:30:26;;;;;;;;;51.25;40.50;;;;;3.93;73.06;101282.91;5053128;28;45387;-76
2022/01/10 07:32:53;;;;;;;;;53.25;40.25;;;;;3.97;73.06;101289.75;5052605;28;45387;-77
2022/01/10 07:35:18;;;;;;;;;56.50;40.00;;;;;3.98;74.40;101299.63;5070847;28;46335;-78
2022/01/10 07:37:43;;;;;;;;;49.00;39.00;;;;;3.97;72.83;101297.91;5071848;28;45655;-79
2022/01/10 07:40:09;;;;;;;;;55.50;43.00;;;;;4.00;73.99;101303.00;5073842;28;45414;-77
2022/01/10 07:42:35;;;;;;;;;62.75;44.50;;;;;3.93;73.29;101312.75;5072756;28;45505;-79
2022/01/10 07:45:01;;;;;;;;;56.25;42.25;;;;;3.96;74.64;101317.88;5057777;28;48083;-79
2022/01/10 07:47:28;;;;;;;;;52.25;39.50;;;;;3.94;73.76;101328.06;5074118;28;44790;-79
2022/01/10 07:49:54;;;;;;;;;47.75;40.75;;;;;3.86;74.08;101320.66;5078695;28;44836;-79
2022/01/10 07:52:21;;;;;;;;;49.50;39.75;;;;;3.90;75.16;101337.50;5070257;28;44792;-73
2022/01/10 07:54:47;;;;;;;;;49.25;39.50;;;;;3.87;75.33;101335.91;5039100;28;45962;-73
2022/01/10 07:57:12;;;;;;;;;54.25;36.75;;;;;3.94;74.78;101352.47;5053038;28;45439;-80
2022/01/10 07:59:37;;;;;;;;;47.75;35.25;;;;;3.95;74.33;101354.19;5036425;28;45570;-81
2022/01/10 08:02:03;;;;;;;;;50.75;36.25;;;;;3.94;73.63;101362.44;5051173;28;45420;-79
2022/01/10 08:04:28;;;;;;;;;43.75;36.00;;;;;3.96;74.25;101372.16;5034424;28;46557;-73
2022/01/10 08:06:54;;;;;;;;;45.75;37.50;;;;;3.94;74.97;101362.44;5049828;28;45521;-73
2022/01/10 08:09:19;;;;;;;;;57.00;44.00;;;;;3.98;75.06;101378.31;5053684;28;45496;-71
2022/01/10 08:11:46;;;;;;;;;56.50;41.50;;;;;3.99;73.70;101392.72;5043229;28;45867;-72
2022/01/10 08:14:12;;;;;;;;;49.75;40.00;;;;;4.03;74.68;101386.00;5052417;28;45814;-72
2022/01/10 08:16:37;;;;;;;;;53.25;40.00;;;;;4.08;73.20;101389.09;5053808;28;45872;-72
2022/01/10 08:19:03;;;;;;;;;44.50;38.75;;;;;4.12;74.71;101384.25;5053640;28;45707;-80
2022/01/10 08:21:32;;;;;;;;;49.25;38.75;;;;;4.18;74.40;101389.91;5056105;28;45703;-78
2022/01/10 08:23:57;;;;;;;;;51.25;39.75;;;;;4.21;72.73;101394.19;5060303;28;46542;-80
2022/01/10 08:26:23;;;;;;;;;52.75;39.25;;;;;4.27;72.44;101396.31;5068131;28;44779;-80
2022/01/10 08:28:48;;;;;;;;;30.75;28.50;;;;;4.31;73.36;101392.28;5062152;28;45780;-78
2022/01/10 08:31:14;;;;;;;;;52.75;38.25;;;;;4.41;72.87;101409.34;5057402;28;45853;-71
2022/01/10 08:33:41;;;;;;;;;46.50;37.00;;;;;4.47;73.52;101412.47;5058697;28;46316;-78
2022/01/10 08:36:07;;;;;;;;;38.25;33.00;;;;;4.56;72.43;101417.00;5058049;28;45493;-77
2022/01/10 08:38:32;;;;;;;;;43.75;38.75;;;;;4.62;72.71;101413.66;5060360;28;45426;-79
2022/01/10 08:40:58;;;;;;;;;41.50;36.25;;;;;4.73;72.81;101420.72;5056929;28;45427;-70
2022/01/10 08:43:23;;;;;;;;;44.25;32.00;;;;;4.82;71.42;101429.81;5036286;28;48334;-78
2022/01/10 08:45:49;;;;;;;;;44.50;37.25;;;;;4.95;72.11;101438.44;5054064;28;45933;-71
2022/01/10 08:48:14;;;;;;;;;37.00;33.00;;;;;5.07;72.05;101439.91;5055008;28;45481;-72
2022/01/10 08:50:40;;;;;;;;;38.25;34.75;;;;;5.15;71.64;101428.28;5031994;28;46316;-70
2022/01/10 08:53:08;;;;;;;;;45.50;37.50;;;;;5.23;70.96;101435.66;5016349;28;45734;-78
2022/01/10 08:55:34;;;;;;;;;38.50;30.25;;;;;5.35;71.23;101448.00;5049945;28;45454;-76
2022/01/10 08:58:01;;;;;;;;;33.75;33.75;;;;;5.41;71.01;101438.34;5049606;28;45468;-78
2022/01/10 09:00:27;;;;;;;;;39.00;34.00;;;;;5.46;70.76;101449.59;5018346;28;45474;-77
2022/01/10 09:02:53;;;;;;;;;44.25;35.00;;;;;5.52;70.99;101456.28;5035712;28;46400;-72
2022/01/10 09:05:20;;;;;;;;;39.50;33.00;;;;;5.61;70.20;101461.66;5044201;28;45842;-78
2022/01/10 09:07:46;;;;;;;;;37.75;30.75;;;;;5.65;70.10;101475.78;5036524;28;45375;-78
2022/01/10 09:10:12;;;;;;;;;33.00;28.50;;;;;5.66;69.58;101472.91;5040258;28;45333;-77
2022/01/10 09:12:38;;;;;;;;;36.75;27.00;;;;;5.68;69.47;101485.50;5049886;28;45395;-71
2022/01/10 09:15:08;;;;;;;;;26.25;24.50;;;;;5.75;69.44;101481.97;5063811;28;45218;-79
2022/01/10 09:17:34;;;;;;;;;37.00;30.25;;;;;5.80;69.03;101489.66;5068488;28;44783;-78
2022/01/10 09:20:00;;;;;;;;;30.00;22.75;;;;;5.84;69.72;101500.06;5061590;28;45406;-71
2022/01/10 09:22:25;;;;;;;;;31.50;25.25;;;;;5.87;69.27;101506.19;5058338;28;46127;-78
2022/01/10 09:24:51;;;;;;;;;29.75;24.00;;;;;5.96;68.92;101508.00;5057062;28;45917;-71
2022/01/10 09:27:16;;;;;;;;;27.50;25.50;;;;;6.04;68.83;101504.50;5057316;28;45438;-72
2022/01/10 09:29:45;;;;;;;;;23.50;23.00;;;;;6.13;68.42;101512.53;5038406;28;45594;-71
2022/01/10 09:32:11;;;;;;;;;31.00;28.00;;;;;6.26;67.94;101514.00;5042809;28;45446;-72
2022/01/10 09:34:36;;;;;;;;;33.25;22.75;;;;;6.34;68.75;101512.13;5018692;28;45864;-77
2022/01/10 09:37:02;;;;;;;;;28.75;21.50;;;;;6.51;67.07;101517.66;5023816;28;45719;-78
2022/01/10 09:39:28;;;;;;;;;25.50;23.50;;;;;6.62;67.29;101524.72;5036193;28;45396;-74
2022/01/10 09:41:56;;;;;;;;;32.00;25.25;;;;;6.70;67.41;101522.03;5055626;28;46923;-74
2022/01/10 09:44:22;;;;;;;;;28.75;24.75;;;;;6.76;66.72;101528.69;5060315;28;44708;-79
2022/01/10 09:46:51;;;;;;;;;32.75;26.50;;;;;6.76;66.45;101512.34;5048050;28;45359;-73
2022/01/10 09:49:17;;;;;;;;;28.25;22.25;;;;;6.86;66.52;101533.00;5061339;28;45723;-79
2022/01/10 09:51:44;;;;;;;;;28.00;22.00;;;;;6.91;66.42;101528.91;5062404;28;46577;-78
2022/01/10 09:54:09;;;;;;;;;24.50;20.50;;;;;6.87;65.99;101531.97;5058219;28;45413;-79
2022/01/10 09:56:35;;;;;;;;;32.75;24.75;;;;;6.93;66.34;101544.09;5056520;28;45620;-72
2022/01/10 09:59:01;;;;;;;;;35.00;30.50;;;;;6.90;66.42;101549.84;5059584;28;45501;-79
2022/01/10 10:01:30;;;;;;;;;29.75;23.50;;;;;6.86;66.10;101564.88;5059576;28;45356;-80
2022/01/10 10:03:59;;;;;;;;;32.75;29.25;;;;;6.75;66.76;101552.38;5033396;28;45836;-72
2022/01/10 10:06:29;;;;;;;;;30.50;24.50;;;;;6.80;66.84;101571.81;5047764;28;45890;-80
2022/01/10 10:09:05;;;;;;;;;32.25;29.75;;;;;6.78;66.47;101565.69;5053303;28;45544;-73
2022/01/10 10:11:45;;;;;;;;;34.75;31.75;;;;;6.80;66.78;101577.28;5045104;28;46078;-72
2022/01/10 10:14:17;;;;;;;;;35.75;31.00;;;;;6.80;66.25;101569.09;5039807;28;45782;-73
2022/01/10 10:16:49;;;;;;;;;38.00;28.75;;;;;6.87;66.44;101572.88;5061200;28;45398;-80
2022/01/10 10:19:20;;;;;;;;;36.75;28.75;;;;;6.94;66.57;101570.34;5055632;28;45486;-73
2022/01/10 10:21:47;;;;;;;;;29.25;26.75;;;;;7.02;65.89;101577.69;5059905;28;45580;-79
2022/01/10 10:24:13;;;;;;;;;33.75;30.25;;;;;7.02;66.29;101580.41;5037557;28;45728;-80
2022/01/10 10:26:40;;;;;;;;;33.50;30.50;;;;;7.09;65.29;101577.91;5042692;28;45387;-73
2022/01/10 10:29:06;;;;;;;;;32.00;29.75;;;;;7.18;65.12;101585.94;5015545;28;45971;-73
2022/01/10 10:31:33;;;;;;;;;41.25;34.00;;;;;7.28;64.96;101590.41;5034481;28;45937;-71
2022/01/10 10:34:20;;;;;;;;;31.50;29.75;;;;;7.38;65.32;101585.63;5044034;28;45411;-79
2022/01/10 10:36:58;;;;;;;;;30.50;28.75;;;;;7.45;65.26;101585.84;5036639;28;45404;-73
2022/01/10 10:39:25;;;;;;;;;25.50;23.25;;;;;7.54;65.46;101582.94;5052884;28;45292;-71
2022/01/10 10:41:55;;;;;;;;;36.00;32.50;;;;;7.71;64.72;101586.56;5055908;28;45402;-71
2022/01/10 10:44:21;;;;;;;;;33.00;27.25;;;;;7.83;64.21;101591.66;5049231;28;45632;-73
2022/01/10 10:46:49;;;;;;;;;40.25;30.00;;;;;7.84;63.96;101588.78;5052331;28;45392;-80
2022/01/10 10:49:18;;;;;;;;;32.50;29.75;;;;;7.91;63.73;101598.00;5056163;28;45457;-74
2022/01/10 10:51:48;;;;;;;;;34.33;29.67;;;;;8.00;63.85;101606.19;5054286;28;46790;-74
2022/01/10 10:54:15;;;;;;;;;32.00;26.67;;;;;8.04;63.38;101607.53;5035764;28;45540;-79
2022/01/10 10:56:45;;;;;;;;;33.75;27.00;;;;;8.11;63.47;101614.03;5055521;28;45407;-78
2022/01/10 10:59:11;;;;;;;;;36.25;31.50;;;;;8.15;63.31;101609.94;5053093;28;47239;-74
2022/01/10 11:01:42;;;;;;;;;36.00;29.00;;;;;8.13;63.41;101615.59;5049025;28;46830;-78
2022/01/10 11:04:10;;;;;;;;;34.50;30.75;;;;;8.15;63.79;101615.41;5033179;28;45696;-73
2022/01/10 11:06:37;;;;;;;;;37.25;31.00;;;;;8.28;63.68;101621.22;5047765;28;45561;-72
2022/01/10 11:09:09;;;;;;;;;38.00;31.00;;;;;8.40;63.27;101626.34;5051145;28;46066;-78
2022/01/10 11:11:35;;;;;;;;;33.25;30.75;;;;;8.48;63.32;101608.03;5051038;28;47626;-73
2022/01/10 11:14:01;;;;;;;;;32.33;30.00;;;;;8.60;63.03;101624.94;5051286;28;45743;-72
2022/01/10 11:16:28;;;;;;;;;35.75;29.50;;;;;8.63;62.42;101619.13;5051013;28;45460;-71
2022/01/10 11:18:55;;;;;;;;;31.75;27.50;;;;;8.58;62.05;101610.59;5051473;28;45726;-79
2022/01/10 11:21:23;;;;;;;;;32.33;25.33;;;;;8.61;62.10;101610.25;5033776;28;46512;-78
2022/01/10 11:23:50;;;;;;;;;33.67;29.33;;;;;8.62;62.24;101613.84;5052511;28;45895;-77
2022/01/10 11:26:17;;;;;;;;;42.75;34.25;;;;;8.59;61.97;101628.72;5051855;28;45316;-72
2022/01/10 11:28:55;;;;;;;;;37.00;32.00;;;;;8.55;62.49;101630.09;5036064;28;46751;-72
2022/01/10 11:31:23;;;;;;;;;32.50;27.50;;;;;8.46;62.65;101628.41;5054253;28;45844;-72
2022/01/10 11:33:50;;;;;;;;;46.50;33.50;;;;;8.38;62.72;101636.56;5044500;28;45433;-70